sensor_id;sensor_type;location;lat;lon;timestamp;pressure;altitude;pressure_sealevel;temperature;humidity
67818;BME280;54614;47.576;7.524;2023-03-18T00:02:23;98161.56;;;25.77;31.90
67818;BME280;54614;47.576;7.524;2023-03-18T00:04:50;98168.84;;;25.76;31.74
67818;BME280;54614;47.576;7.524;2023-03-18T00:07:16;98179.16;;;25.79;31.76
67818;BME280;54614;47.576;7.524;2023-03-18T00:09:42;98160.03;;;25.69;31.87
67818;BME280;54614;47.576;7.524;2023-03-18T00:12:08;98168.69;;;25.71;31.60
67818;BME280;54614;47.576;7.524;2023-03-18T00:14:36;98173.63;;;25.74;31.59
67818;BME280;54614;47.576;7.524;2023-03-18T00:17:04;98166.00;;;25.71;31.84
67818;BME280;54614;47.576;7.524;2023-03-18T00:19:30;98160.38;;;25.73;31.56
67818;BME280;54614;47.576;7.524;2023-03-18T00:21:58;98151.94;;;25.69;31.81
67818;BME280;54614;47.576;7.524;2023-03-18T00:24:24;98153.34;;;25.72;31.69
67818;BME280;54614;47.576;7.524;2023-03-18T00:26:52;98151.94;;;25.69;31.48
67818;BME280;54614;47.576;7.524;2023-03-18T00:29:18;98151.72;;;25.70;31.78
67818;BME280;54614;47.576;7.524;2023-03-18T00:31:45;98153.34;;;25.72;31.82
67818;BME280;54614;47.576;7.524;2023-03-18T00:34:11;98164.59;;;25.68;31.48
67818;BME280;54614;47.576;7.524;2023-03-18T00:36:37;98180.53;;;25.70;31.58
67818;BME280;54614;47.576;7.524;2023-03-18T00:39:05;98177.47;;;25.66;31.98
67818;BME280;54614;47.576;7.524;2023-03-18T00:41:32;98180.97;;;25.67;31.76
67818;BME280;54614;47.576;7.524;2023-03-18T00:44:01;98177.47;;;25.66;31.69
67818;BME280;54614;47.576;7.524;2023-03-18T00:46:31;98188.66;;;25.63;31.79
67818;BME280;54614;47.576;7.524;2023-03-18T00:49:02;98186.72;;;25.70;31.56
67818;BME280;54614;47.576;7.524;2023-03-18T00:51:33;98177.00;;;25.69;31.66
67818;BME280;54614;47.576;7.524;2023-03-18T00:54:03;98185.53;;;25.66;31.52
67818;BME280;54614;47.576;7.524;2023-03-18T00:56:32;98187.41;;;25.66;31.55
67818;BME280;54614;47.576;7.524;2023-03-18T00:58:59;98181.22;;;25.65;31.43
67818;BME280;54614;47.576;7.524;2023-03-18T01:01:27;98175.81;;;25.65;31.58
67818;BME280;54614;47.576;7.524;2023-03-18T01:03:53;98177.47;;;25.66;31.51
67818;BME280;54614;47.576;7.524;2023-03-18T01:06:24;98171.63;;;25.69;31.47
67818;BME280;54614;47.576;7.524;2023-03-18T01:08:51;98187.47;;;25.59;31.65
67818;BME280;54614;47.576;7.524;2023-03-18T01:11:17;98181.03;;;25.60;31.51
67818;BME280;54614;47.576;7.524;2023-03-18T01:13:44;98170.25;;;25.60;31.54
67818;BME280;54614;47.576;7.524;2023-03-18T01:16:11;98177.16;;;25.56;31.72
67818;BME280;54614;47.576;7.524;2023-03-18T01:18:38;98171.69;;;25.63;31.44
67818;BME280;54614;47.576;7.524;2023-03-18T01:21:05;98169.22;;;25.61;31.75
67818;BME280;54614;47.576;7.524;2023-03-18T01:23:30;98167.81;;;25.59;31.33
67818;BME280;54614;47.576;7.524;2023-03-18T01:25:57;98179.63;;;25.58;31.70
67818;BME280;54614;47.576;7.524;2023-03-18T01:28:24;98159.25;;;25.62;31.39
67818;BME280;54614;47.576;7.524;2023-03-18T01:30:52;98171.53;;;25.58;31.82
67818;BME280;54614;47.576;7.524;2023-03-18T01:33:18;98165.47;;;25.62;31.48
67818;BME280;54614;47.576;7.524;2023-03-18T01:35:44;98164.88;;;25.60;31.48
67818;BME280;54614;47.576;7.524;2023-03-18T01:38:12;98150.00;;;25.58;31.71
67818;BME280;54614;47.576;7.524;2023-03-18T01:40:39;98163.09;;;25.54;31.67
67818;BME280;54614;47.576;7.524;2023-03-18T01:45:37;98164.66;;;25.62;31.64
67818;BME280;54614;47.576;7.524;2023-03-18T01:48:03;98159.34;;;25.55;31.81
67818;BME280;54614;47.576;7.524;2023-03-18T01:50:33;98166.97;;;25.58;31.85
67818;BME280;54614;47.576;7.524;2023-03-18T01:53:10;98169.31;;;25.55;31.57
67818;BME280;54614;47.576;7.524;2023-03-18T01:55:38;98161.00;;;25.56;31.62
67818;BME280;54614;47.576;7.524;2023-03-18T01:58:33;98158.31;;;25.56;31.54
67818;BME280;54614;47.576;7.524;2023-03-18T02:01:10;98163.91;;;25.55;31.50
67818;BME280;54614;47.576;7.524;2023-03-18T02:03:40;98166.47;;;25.50;31.57
67818;BME280;54614;47.576;7.524;2023-03-18T02:06:07;98157.34;;;25.51;31.48
67818;BME280;54614;47.576;7.524;2023-03-18T02:08:33;98160.03;;;25.51;31.78
67818;BME280;54614;47.576;7.524;2023-03-18T02:11:00;98163.19;;;25.48;31.44
67818;BME280;54614;47.576;7.524;2023-03-18T02:13:27;98160.63;;;25.53;31.78
67818;BME280;54614;47.576;7.524;2023-03-18T02:16:10;98151.72;;;25.52;31.61
67818;BME280;54614;47.576;7.524;2023-03-18T02:18:53;98164.16;;;25.53;31.51
67818;BME280;54614;47.576;7.524;2023-03-18T02:29:40;98161.31;;;25.48;31.45
67818;BME280;54614;47.576;7.524;2023-03-18T02:32:08;98169.41;;;25.48;31.69
67818;BME280;54614;47.576;7.524;2023-03-18T02:34:37;98169.41;;;25.48;31.37
67818;BME280;54614;47.576;7.524;2023-03-18T02:37:05;98164.38;;;25.52;31.61
67818;BME280;54614;47.576;7.524;2023-03-18T02:39:33;98166.09;;;25.46;31.65
67818;BME280;54614;47.576;7.524;2023-03-18T02:42:00;98165.28;;;25.46;31.51
67818;BME280;54614;47.576;7.524;2023-03-18T02:44:27;98164.59;;;25.50;31.38
67818;BME280;54614;47.576;7.524;2023-03-18T02:46:58;98163.19;;;25.48;31.50
67818;BME280;54614;47.576;7.524;2023-03-18T02:49:26;98162.13;;;25.49;31.31
67818;BME280;54614;47.576;7.524;2023-03-18T02:51:53;98158.84;;;25.47;31.36
67818;BME280;54614;47.576;7.524;2023-03-18T02:54:27;98160.13;;;25.44;31.43
67818;BME280;54614;47.576;7.524;2023-03-18T02:56:54;98163.41;;;25.46;31.22
67818;BME280;54614;47.576;7.524;2023-03-18T02:59:21;98168.81;;;25.46;31.32
67818;BME280;54614;47.576;7.524;2023-03-18T03:01:51;98168.56;;;25.48;31.57
67818;BME280;54614;47.576;7.524;2023-03-18T03:04:20;98160.28;;;25.49;31.41
67818;BME280;54614;47.576;7.524;2023-03-18T03:06:50;98160.13;;;25.44;31.56
67818;BME280;54614;47.576;7.524;2023-03-18T03:09:17;98165.50;;;25.44;31.56
67818;BME280;54614;47.576;7.524;2023-03-18T03:11:45;98160.13;;;25.44;31.53
67818;BME280;54614;47.576;7.524;2023-03-18T03:14:14;98158.84;;;25.47;31.50
67818;BME280;54614;47.576;7.524;2023-03-18T03:16:40;98163.66;;;25.45;31.78
67818;BME280;54614;47.576;7.524;2023-03-18T03:19:06;98164.91;;;25.42;31.44
67818;BME280;54614;47.576;7.524;2023-03-18T03:21:33;98172.78;;;25.44;31.48
67818;BME280;54614;47.576;7.524;2023-03-18T03:24:04;98168.22;;;25.44;31.29
67818;BME280;54614;47.576;7.524;2023-03-18T03:26:31;98173.44;;;25.39;31.48
67818;BME280;54614;47.576;7.524;2023-03-18T03:28:57;98177.78;;;25.40;31.51
67818;BME280;54614;47.576;7.524;2023-03-18T03:31:23;98167.84;;;25.41;31.67
67818;BME280;54614;47.576;7.524;2023-03-18T03:33:49;98173.09;;;25.35;31.51
67818;BME280;54614;47.576;7.524;2023-03-18T03:36:16;98163.97;;;25.36;31.33
67818;BME280;54614;47.576;7.524;2023-03-18T03:38:43;98172.41;;;25.40;31.43
67818;BME280;54614;47.576;7.524;2023-03-18T03:41:11;98172.47;;;25.33;31.65
67818;BME280;54614;47.576;7.524;2023-03-18T03:43:39;98171.22;;;25.36;31.33
67818;BME280;54614;47.576;7.524;2023-03-18T03:46:07;98176.00;;;25.34;31.64
67818;BME280;54614;47.576;7.524;2023-03-18T03:48:34;98175.53;;;25.37;31.69
67818;BME280;54614;47.576;7.524;2023-03-18T03:51:01;98168.06;;;25.39;31.36
67818;BME280;54614;47.576;7.524;2023-03-18T03:53:27;98169.94;;;25.38;31.50
67818;BME280;54614;47.576;7.524;2023-03-18T03:55:53;98162.53;;;25.34;31.45
67818;BME280;54614;47.576;7.524;2023-03-18T03:58:20;98163.34;;;25.34;31.28
67818;BME280;54614;47.576;7.524;2023-03-18T04:00:47;98169.34;;;25.36;31.57
67818;BME280;54614;47.576;7.524;2023-03-18T04:03:13;98163.81;;;25.31;31.45
67818;BME280;54614;47.576;7.524;2023-03-18T04:05:39;98164.63;;;25.32;31.55
67818;BME280;54614;47.576;7.524;2023-03-18T04:08:06;98171.44;;;25.34;31.54
67818;BME280;54614;47.576;7.524;2023-03-18T04:10:32;98167.31;;;25.32;31.45
67818;BME280;54614;47.576;7.524;2023-03-18T04:13:02;98164.78;;;25.37;31.51
67818;BME280;54614;47.576;7.524;2023-03-18T04:15:28;98184.44;;;25.37;31.40
67818;BME280;54614;47.576;7.524;2023-03-18T04:17:54;98184.44;;;25.37;31.27
67818;BME280;54614;47.576;7.524;2023-03-18T04:20:20;98179.06;;;25.37;31.35
67818;BME280;54614;47.576;7.524;2023-03-18T04:22:46;98171.06;;;25.31;31.42
67818;BME280;54614;47.576;7.524;2023-03-18T04:25:13;98172.94;;;25.30;31.61
67818;BME280;54614;47.576;7.524;2023-03-18T04:27:41;98179.44;;;25.23;31.34
67818;BME280;54614;47.576;7.524;2023-03-18T04:30:09;98173.75;;;25.31;31.22
67818;BME280;54614;47.576;7.524;2023-03-18T04:32:36;98166.97;;;25.28;31.28
67818;BME280;54614;47.576;7.524;2023-03-18T04:35:02;98169.44;;;25.30;31.59
67818;BME280;54614;47.576;7.524;2023-03-18T04:37:28;98170.25;;;25.30;31.60
67818;BME280;54614;47.576;7.524;2023-03-18T04:39:54;98171.53;;;25.28;31.19
67818;BME280;54614;47.576;7.524;2023-03-18T04:42:20;98180.34;;;25.35;31.53
67818;BME280;54614;47.576;7.524;2023-03-18T04:44:46;98179.75;;;25.33;31.34
67818;BME280;54614;47.576;7.524;2023-03-18T04:47:11;98190.53;;;25.15;31.95
67818;BME280;54614;47.576;7.524;2023-03-18T04:49:39;98183.63;;;25.19;31.79
67818;BME280;54614;47.576;7.524;2023-03-18T04:52:05;98181.69;;;25.26;31.41
67818;BME280;54614;47.576;7.524;2023-03-18T04:54:32;98176.22;;;25.32;31.30
67818;BME280;54614;47.576;7.524;2023-03-18T04:56:58;98179.59;;;25.28;31.69
67818;BME280;54614;47.576;7.524;2023-03-18T04:59:24;98182.88;;;25.30;31.24
67818;BME280;54614;47.576;7.524;2023-03-18T05:01:50;98179.16;;;25.31;31.38
67818;BME280;54614;47.576;7.524;2023-03-18T05:04:15;98183.34;;;25.27;31.26
67818;BME280;54614;47.576;7.524;2023-03-18T05:06:42;98177.94;;;25.27;31.63
67818;BME280;54614;47.576;7.524;2023-03-18T05:09:08;98181.09;;;25.24;31.38
67818;BME280;54614;47.576;7.524;2023-03-18T05:11:34;98184.97;;;25.28;31.58
67818;BME280;54614;47.576;7.524;2023-03-18T05:14:00;98175.03;;;25.28;31.44
67818;BME280;54614;47.576;7.524;2023-03-18T05:16:26;98172.19;;;25.23;31.38
67818;BME280;54614;47.576;7.524;2023-03-18T05:18:52;98179.44;;;25.23;31.23
67818;BME280;54614;47.576;7.524;2023-03-18T05:21:18;98175.72;;;25.24;31.47
67818;BME280;54614;47.576;7.524;2023-03-18T05:23:44;98177.81;;;25.22;31.45
67818;BME280;54614;47.576;7.524;2023-03-18T05:26:09;98181.31;;;25.22;31.39
67818;BME280;54614;47.576;7.524;2023-03-18T05:28:38;98183.19;;;25.22;31.63
67818;BME280;54614;47.576;7.524;2023-03-18T05:31:05;98190.06;;;25.18;31.52
67818;BME280;54614;47.576;7.524;2023-03-18T05:33:31;98194.19;;;25.20;31.26
67818;BME280;54614;47.576;7.524;2023-03-18T05:35:58;98192.31;;;25.21;31.61
67818;BME280;54614;47.576;7.524;2023-03-18T05:38:24;98192.38;;;25.14;31.65
67818;BME280;54614;47.576;7.524;2023-03-18T05:40:51;98196.94;;;25.14;31.23
67818;BME280;54614;47.576;7.524;2023-03-18T05:43:16;98196.50;;;25.17;31.45
67818;BME280;54614;47.576;7.524;2023-03-18T05:45:42;98196.72;;;25.15;31.50
67818;BME280;54614;47.576;7.524;2023-03-18T05:48:09;98197.53;;;25.16;31.24
67818;BME280;54614;47.576;7.524;2023-03-18T05:50:41;98198.59;;;25.15;31.14
67818;BME280;54614;47.576;7.524;2023-03-18T05:53:09;98206.28;;;25.11;31.39
67818;BME280;54614;47.576;7.524;2023-03-18T05:55:37;98204.44;;;25.12;31.17
67818;BME280;54614;47.576;7.524;2023-03-18T05:58:05;98195.31;;;25.13;31.19
67818;BME280;54614;47.576;7.524;2023-03-18T06:00:31;98203.59;;;25.11;31.18
67818;BME280;54614;47.576;7.524;2023-03-18T06:02:58;98200.47;;;25.14;31.24
67818;BME280;54614;47.576;7.524;2023-03-18T06:05:25;98208.53;;;25.14;31.59
67818;BME280;54614;47.576;7.524;2023-03-18T06:07:52;98214.13;;;25.13;31.44
67818;BME280;54614;47.576;7.524;2023-03-18T06:10:20;98210.41;;;25.14;31.10
67818;BME280;54614;47.576;7.524;2023-03-18T06:12:48;98209.13;;;25.16;31.46
67818;BME280;54614;47.576;7.524;2023-03-18T06:15:15;98208.69;;;25.19;31.13
67818;BME280;54614;47.576;7.524;2023-03-18T06:17:41;98215.56;;;25.15;31.28
67818;BME280;54614;47.576;7.524;2023-03-18T06:20:09;98223.41;;;25.17;31.31
67818;BME280;54614;47.576;7.524;2023-03-18T06:22:37;98211.59;;;25.18;31.60
67818;BME280;54614;47.576;7.524;2023-03-18T06:25:03;98229.16;;;25.20;31.23
67818;BME280;54614;47.576;7.524;2023-03-18T06:27:33;98228.34;;;25.20;31.22
67818;BME280;54614;47.576;7.524;2023-03-18T06:29:59;98206.59;;;25.21;31.16
67818;BME280;54614;47.576;7.524;2023-03-18T06:32:29;98225.66;;;25.20;31.05
67818;BME280;54614;47.576;7.524;2023-03-18T06:34:55;98230.00;;;25.21;31.18
67818;BME280;54614;47.576;7.524;2023-03-18T06:37:22;98216.16;;;25.17;31.33
67818;BME280;54614;47.576;7.524;2023-03-18T06:39:48;98208.69;;;25.19;31.18
67818;BME280;54614;47.576;7.524;2023-03-18T06:42:14;98214.75;;;25.15;31.32
67818;BME280;54614;47.576;7.524;2023-03-18T06:44:40;98219.22;;;25.02;31.69
67818;BME280;54614;47.576;7.524;2023-03-18T06:47:09;98211.22;;;25.14;31.23
67818;BME280;54614;47.576;7.524;2023-03-18T06:49:35;98210.78;;;25.17;31.24
67818;BME280;54614;47.576;7.524;2023-03-18T06:52:01;98226.09;;;25.17;31.30
67818;BME280;54614;47.576;7.524;2023-03-18T06:54:28;98218.03;;;25.17;31.27
67818;BME280;54614;47.576;7.524;2023-03-18T06:56:54;98227.16;;;25.16;31.38
67818;BME280;54614;47.576;7.524;2023-03-18T06:59:19;98228.66;;;25.12;31.70
67818;BME280;54614;47.576;7.524;2023-03-18T07:01:47;98228.34;;;25.01;32.21
67818;BME280;54614;47.576;7.524;2023-03-18T07:04:14;98237.50;;;24.94;31.77
67818;BME280;54614;47.576;7.524;2023-03-18T07:06:40;98236.22;;;24.96;31.74
67818;BME280;54614;47.576;7.524;2023-03-18T07:09:06;98228.41;;;25.13;31.78
67818;BME280;54614;47.576;7.524;2023-03-18T07:11:35;98225.66;;;25.20;31.63
67818;BME280;54614;47.576;7.524;2023-03-18T07:14:01;98237.47;;;25.19;31.59
67818;BME280;54614;47.576;7.524;2023-03-18T07:16:27;98240.59;;;25.16;31.47
67818;BME280;54614;47.576;7.524;2023-03-18T07:18:52;98230.88;;;25.15;31.58
67818;BME280;54614;47.576;7.524;2023-03-18T07:21:18;98238.13;;;25.14;31.55
67818;BME280;54614;47.576;7.524;2023-03-18T07:23:44;98243.06;;;25.17;31.61
67818;BME280;54614;47.576;7.524;2023-03-18T07:26:10;98246.66;;;25.11;31.34
67818;BME280;54614;47.576;7.524;2023-03-18T07:28:37;98248.09;;;25.14;31.41
67818;BME280;54614;47.576;7.524;2023-03-18T07:31:03;98251.75;;;25.19;31.55
67818;BME280;54614;47.576;7.524;2023-03-18T07:33:29;98261.38;;;25.09;31.39
67818;BME280;54614;47.576;7.524;2023-03-18T07:35:55;98250.19;;;25.12;31.73
67818;BME280;54614;47.576;7.524;2023-03-18T07:38:21;98262.50;;;25.01;31.70
67818;BME280;54614;47.576;7.524;2023-03-18T07:40:48;98255.34;;;25.13;31.45
67818;BME280;54614;47.576;7.524;2023-03-18T07:43:13;98258.31;;;25.05;31.61
67818;BME280;54614;47.576;7.524;2023-03-18T07:45:40;98255.03;;;25.03;31.48
67818;BME280;54614;47.576;7.524;2023-03-18T07:48:05;98254.13;;;25.09;31.43
67818;BME280;54614;47.576;7.524;2023-03-18T07:50:32;98256.53;;;25.17;31.57
67818;BME280;54614;47.576;7.524;2023-03-18T07:52:58;98262.59;;;25.13;31.37
67818;BME280;54614;47.576;7.524;2023-03-18T07:55:24;98263.63;;;25.12;31.31
67818;BME280;54614;47.576;7.524;2023-03-18T07:57:50;98263.84;;;25.10;31.41
67818;BME280;54614;47.576;7.524;2023-03-18T08:00:17;98266.31;;;25.12;31.35
67818;BME280;54614;47.576;7.524;2023-03-18T08:02:42;98261.69;;;25.19;31.46
67818;BME280;54614;47.576;7.524;2023-03-18T08:05:09;98260.19;;;25.23;31.50
67818;BME280;54614;47.576;7.524;2023-03-18T08:07:36;98262.00;;;25.29;31.34
67818;BME280;54614;47.576;7.524;2023-03-18T08:10:03;98253.03;;;25.35;31.58
67818;BME280;54614;47.576;7.524;2023-03-18T08:12:29;98254.22;;;25.39;31.17
67818;BME280;54614;47.576;7.524;2023-03-18T08:14:56;98258.25;;;25.30;32.33
67818;BME280;54614;47.576;7.524;2023-03-18T08:17:22;98250.78;;;25.32;31.40
67818;BME280;54614;47.576;7.524;2023-03-18T08:19:48;98255.88;;;25.40;31.41
67818;BME280;54614;47.576;7.524;2023-03-18T08:22:14;98254.38;;;25.44;31.39
67818;BME280;54614;47.576;7.524;2023-03-18T08:24:40;98256.53;;;25.35;31.58
67818;BME280;54614;47.576;7.524;2023-03-18T08:27:07;98256.28;;;25.00;32.20
67818;BME280;54614;47.576;7.524;2023-03-18T08:29:34;98258.56;;;25.22;32.07
67818;BME280;54614;47.576;7.524;2023-03-18T08:32:00;98251.31;;;25.41;32.15
67818;BME280;54614;47.576;7.524;2023-03-18T08:34:26;98250.84;;;25.44;32.51
67818;BME280;54614;47.576;7.524;2023-03-18T08:36:52;98252.06;;;25.48;31.92
67818;BME280;54614;47.576;7.524;2023-03-18T08:39:18;98249.66;;;25.58;31.77
67818;BME280;54614;47.576;7.524;2023-03-18T08:41:44;98246.00;;;25.52;31.24
67818;BME280;54614;47.576;7.524;2023-03-18T08:44:10;98237.69;;;25.35;31.30
67818;BME280;54614;47.576;7.524;2023-03-18T08:46:37;98241.28;;;25.29;31.76
67818;BME280;54614;47.576;7.524;2023-03-18T08:49:05;98244.66;;;25.43;31.39
67818;BME280;54614;47.576;7.524;2023-03-18T08:51:31;98236.41;;;25.56;31.89
67818;BME280;54614;47.576;7.524;2023-03-18T08:53:57;98236.41;;;25.56;31.82
67818;BME280;54614;47.576;7.524;2023-03-18T08:56:24;98236.31;;;25.63;31.99
67818;BME280;54614;47.576;7.524;2023-03-18T08:58:50;98234.41;;;25.52;31.81
67818;BME280;54614;47.576;7.524;2023-03-18T09:01:17;98240.38;;;25.54;32.72
67818;BME280;54614;47.576;7.524;2023-03-18T09:03:48;98237.31;;;25.68;32.59
67818;BME280;54614;47.576;7.524;2023-03-18T09:06:14;98220.09;;;25.69;32.59
67818;BME280;54614;47.576;7.524;2023-03-18T09:08:40;98214.72;;;25.69;32.43
67818;BME280;54614;47.576;7.524;2023-03-18T09:11:07;98218.84;;;25.72;32.60
67818;BME280;54614;47.576;7.524;2023-03-18T09:13:34;98205.94;;;25.74;32.88
67818;BME280;54614;47.576;7.524;2023-03-18T09:16:01;98207.72;;;25.80;32.61
67818;BME280;54614;47.576;7.524;2023-03-18T09:18:27;98206.22;;;25.84;32.20
67818;BME280;54614;47.576;7.524;2023-03-18T09:20:54;98197.41;;;25.77;32.53
67818;BME280;54614;47.576;7.524;2023-03-18T09:23:19;98196.13;;;25.80;32.60
67818;BME280;54614;47.576;7.524;2023-03-18T09:25:46;98189.16;;;25.90;32.18
67818;BME280;54614;47.576;7.524;2023-03-18T09:28:13;98191.09;;;25.83;32.46
67818;BME280;54614;47.576;7.524;2023-03-18T09:30:39;98194.53;;;25.90;32.23
67818;BME280;54614;47.576;7.524;2023-03-18T09:33:06;98188.66;;;25.82;32.62
67818;BME280;54614;47.576;7.524;2023-03-18T09:35:34;98191.00;;;25.90;32.44
67818;BME280;54614;47.576;7.524;2023-03-18T09:38:00;98193.63;;;25.96;31.93
67818;BME280;54614;47.576;7.524;2023-03-18T09:40:36;98195.25;;;25.97;31.92
67818;BME280;54614;47.576;7.524;2023-03-18T09:43:48;98197.72;;;25.99;32.49
67818;BME280;54614;47.576;7.524;2023-03-18T09:46:48;98192.13;;;26.00;32.35
67818;BME280;54614;47.576;7.524;2023-03-18T09:49:41;98190.25;;;26.01;32.15
67818;BME280;54614;47.576;7.524;2023-03-18T09:53:19;98191.22;;;26.07;32.27
67818;BME280;54614;47.576;7.524;2023-03-18T09:55:59;98189.47;;;26.12;32.30
67818;BME280;54614;47.576;7.524;2023-03-18T10:01:05;98187.22;;;26.09;32.68
67818;BME280;54614;47.576;7.524;2023-03-18T10:03:33;98187.13;;;26.16;32.53
67818;BME280;54614;47.576;7.524;2023-03-18T10:06:28;98187.50;;;26.19;32.49
67818;BME280;54614;47.576;7.524;2023-03-18T10:09:15;98191.47;;;26.17;32.40
67818;BME280;54614;47.576;7.524;2023-03-18T10:11:49;98175.88;;;26.19;32.40
67818;BME280;54614;47.576;7.524;2023-03-18T10:14:33;98177.28;;;26.21;32.41
67818;BME280;54614;47.576;7.524;2023-03-18T10:17:22;98172.38;;;26.30;32.31
67818;BME280;54614;47.576;7.524;2023-03-18T10:19:57;98175.00;;;26.37;32.24
67818;BME280;54614;47.576;7.524;2023-03-18T10:22:59;98171.03;;;26.51;31.49
67818;BME280;54614;47.576;7.524;2023-03-18T10:25:46;98173.59;;;26.57;31.32
67818;BME280;54614;47.576;7.524;2023-03-18T10:34:01;98163.16;;;26.61;31.22
67818;BME280;54614;47.576;7.524;2023-03-18T10:39:25;98159.19;;;26.63;30.79
67818;BME280;54614;47.576;7.524;2023-03-18T10:41:54;98152.03;;;26.57;31.20
67818;BME280;54614;47.576;7.524;2023-03-18T10:44:29;98149.22;;;26.64;30.85
67818;BME280;54614;47.576;7.524;2023-03-18T10:47:10;98142.41;;;26.61;30.90
67818;BME280;54614;47.576;7.524;2023-03-18T10:49:52;98147.22;;;26.36;31.54
67818;BME280;54614;47.576;7.524;2023-03-18T10:52:52;98146.84;;;25.91;32.05
67818;BME280;54614;47.576;7.524;2023-03-18T10:55:25;98145.03;;;25.73;32.19
67818;BME280;54614;47.576;7.524;2023-03-18T10:57:53;98140.28;;;25.57;32.47
67818;BME280;54614;47.576;7.524;2023-03-18T11:00:32;98137.81;;;25.55;32.41
67818;BME280;54614;47.576;7.524;2023-03-18T11:02:58;98131.84;;;25.53;32.49
67818;BME280;54614;47.576;7.524;2023-03-18T11:05:32;98133.94;;;25.51;32.67
67818;BME280;54614;47.576;7.524;2023-03-18T11:08:06;98132.53;;;25.49;32.54
67818;BME280;54614;47.576;7.524;2023-03-18T11:10:43;98132.53;;;25.49;32.86
67818;BME280;54614;47.576;7.524;2023-03-18T11:13:20;98122.78;;;25.48;32.80
67818;BME280;54614;47.576;7.524;2023-03-18T11:15:54;98129.00;;;25.48;32.73
67818;BME280;54614;47.576;7.524;2023-03-18T11:18:26;98129.03;;;25.60;32.75
67818;BME280;54614;47.576;7.524;2023-03-18T11:20:59;98129.22;;;25.47;33.25
67818;BME280;54614;47.576;7.524;2023-03-18T11:23:37;98125.84;;;25.51;33.31
67818;BME280;54614;47.576;7.524;2023-03-18T11:26:28;98117.09;;;25.86;32.34
67818;BME280;54614;47.576;7.524;2023-03-18T11:29:09;98106.28;;;25.74;32.47
67818;BME280;54614;47.576;7.524;2023-03-18T11:32:23;98113.28;;;26.05;32.12
67818;BME280;54614;47.576;7.524;2023-03-18T11:35:18;98120.00;;;25.84;32.50
67818;BME280;54614;47.576;7.524;2023-03-18T11:37:46;98118.34;;;26.25;31.87
67818;BME280;54614;47.576;7.524;2023-03-18T11:40:18;98116.84;;;26.52;31.49
67818;BME280;54614;47.576;7.524;2023-03-18T11:42:47;98106.88;;;26.53;31.70
67818;BME280;54614;47.576;7.524;2023-03-18T11:45:37;98106.00;;;26.06;31.74
67818;BME280;54614;47.576;7.524;2023-03-18T11:48:36;98108.66;;;25.94;32.15
67818;BME280;54614;47.576;7.524;2023-03-18T11:54:48;98098.69;;;25.83;32.80
67818;BME280;54614;47.576;7.524;2023-03-18T11:57:37;98100.22;;;25.90;32.68
67818;BME280;54614;47.576;7.524;2023-03-18T12:06:24;98096.78;;;26.25;32.20
67818;BME280;54614;47.576;7.524;2023-03-18T12:09:32;98099.59;;;26.18;32.60
67818;BME280;54614;47.576;7.524;2023-03-18T12:15:07;98088.88;;;26.00;32.91
67818;BME280;54614;47.576;7.524;2023-03-18T12:17:48;98079.97;;;25.99;32.67
67818;BME280;54614;47.576;7.524;2023-03-18T12:31:57;98073.25;;;26.32;32.64
67818;BME280;54614;47.576;7.524;2023-03-18T12:34:58;98071.47;;;26.49;32.58
67818;BME280;54614;47.576;7.524;2023-03-18T12:37:43;98061.25;;;26.51;32.64
67818;BME280;54614;47.576;7.524;2023-03-18T12:40:36;98060.91;;;26.48;32.61
67818;BME280;54614;47.576;7.524;2023-03-18T12:45:44;98054.09;;;26.57;32.03
67818;BME280;54614;47.576;7.524;2023-03-18T12:48:27;98059.03;;;26.60;31.99
67818;BME280;54614;47.576;7.524;2023-03-18T12:51:07;98055.03;;;26.62;31.35
67818;BME280;54614;47.576;7.524;2023-03-18T12:53:41;98056.66;;;26.63;31.27
67818;BME280;54614;47.576;7.524;2023-03-18T12:56:16;98056.09;;;26.61;30.92
67818;BME280;54614;47.576;7.524;2023-03-18T12:58:51;98054.69;;;26.59;31.43
67818;BME280;54614;47.576;7.524;2023-03-18T13:01:33;98052.00;;;26.59;31.28
67818;BME280;54614;47.576;7.524;2023-03-18T13:04:11;98046.84;;;26.57;31.54
67818;BME280;54614;47.576;7.524;2023-03-18T13:06:52;98048.94;;;26.55;31.72
67818;BME280;54614;47.576;7.524;2023-03-18T13:09:31;98043.53;;;26.55;31.39
67818;BME280;54614;47.576;7.524;2023-03-18T13:12:31;98050.81;;;26.55;31.37
67818;BME280;54614;47.576;7.524;2023-03-18T13:15:29;98050.47;;;26.51;31.28
67818;BME280;54614;47.576;7.524;2023-03-18T13:18:22;98047.06;;;26.56;31.26
67818;BME280;54614;47.576;7.524;2023-03-18T13:20:52;98037.34;;;26.55;31.53
67818;BME280;54614;47.576;7.524;2023-03-18T13:27:07;98036.75;;;26.53;31.56
67818;BME280;54614;47.576;7.524;2023-03-18T13:36:04;98035.16;;;26.80;30.59
67818;BME280;54614;47.576;7.524;2023-03-18T13:38:52;98033.66;;;26.73;30.89
67818;BME280;54614;47.576;7.524;2023-03-18T13:44:53;98028.41;;;26.54;31.45
67818;BME280;54614;47.576;7.524;2023-03-18T13:47:23;98022.91;;;26.61;30.84
67818;BME280;54614;47.576;7.524;2023-03-18T13:50:04;98023.91;;;26.72;31.27
67818;BME280;54614;47.576;7.524;2023-03-18T13:52:42;98026.00;;;26.81;31.06
67818;BME280;54614;47.576;7.524;2023-03-18T13:58:16;98020.69;;;26.98;31.43
67818;BME280;54614;47.576;7.524;2023-03-18T14:00:44;98008.81;;;26.59;32.01
67818;BME280;54614;47.576;7.524;2023-03-18T14:13:52;98023.72;;;25.80;33.39
67818;BME280;54614;47.576;7.524;2023-03-18T14:16:26;98013.28;;;25.83;33.18
67818;BME280;54614;47.576;7.524;2023-03-18T14:19:26;98016.81;;;26.30;30.53
67818;BME280;54614;47.576;7.524;2023-03-18T14:22:22;98003.25;;;26.37;29.27
67818;BME280;54614;47.576;7.524;2023-03-18T14:27:52;98017.03;;;25.70;26.29
67818;BME280;54614;47.576;7.524;2023-03-18T14:38:21;98011.09;;;26.27;26.90
67818;BME280;54614;47.576;7.524;2023-03-18T14:40:51;98008.63;;;26.37;26.54
67818;BME280;54614;47.576;7.524;2023-03-18T14:43:37;97999.59;;;26.43;27.37
67818;BME280;54614;47.576;7.524;2023-03-18T14:46:17;97991.28;;;26.45;27.17
67818;BME280;54614;47.576;7.524;2023-03-18T14:48:52;97991.88;;;26.35;27.32